Time;durP1;ratioP1;P1;durP2;ratioP2;P2;SDS_P1;SDS_P2;PMS_P1;PMS_P2;Temp;Humidity;BMP_temperature;BMP_pressure;BME280_temperature;BME280_humidity;BME280_pressure;Samples;Min_cycle;Max_cycle;Signal;HPM_P1;HPM_P2
2022/09/30 00:00:44;;;;;;;16.88;2.17;;;;;;;;;;5026997;28;20095;-59
2022/09/30 00:03:10;;;;;;;26.45;2.50;;;;;;;;;;5027023;28;20040;-58
2022/09/30 00:05:37;;;;;;;6.97;1.70;;;;;;;;;;5026703;28;20495;-59
2022/09/30 00:08:03;;;;;;;19.23;1.90;;;;;;;;;;5027019;28;20640;-59
2022/09/30 00:10:29;;;;;;;2.25;1.40;;;;;;;;;;5026310;28;20413;-59
2022/09/30 00:12:57;;;;;;;2.03;1.38;;;;;;;;;;5025392;28;20041;-59
2022/09/30 00:15:23;;;;;;;2.13;1.00;;;;;;;;;;5015236;28;20045;-59
2022/09/30 00:17:49;;;;;;;0.90;0.60;;;;;;;;;;5026808;28;20038;-57
2022/09/30 00:20:16;;;;;;;0.93;0.70;;;;;;;;;;5026514;28;20041;-59
2022/09/30 00:22:43;;;;;;;1.67;1.05;;;;;;;;;;5024792;28;20033;-59
2022/09/30 00:25:10;;;;;;;2.10;1.30;;;;;;;;;;5026833;28;20053;-59
2022/09/30 00:27:37;;;;;;;3.47;1.50;;;;;;;;;;5025707;28;20045;-59
2022/09/30 00:30:03;;;;;;;4.55;2.10;;;;;;;;;;5026411;28;20046;-59
2022/09/30 00:32:29;;;;;;;2.67;1.98;;;;;;;;;;5024260;28;20088;-59
2022/09/30 00:34:56;;;;;;;2.85;1.60;;;;;;;;;;5025679;28;20744;-59
2022/09/30 00:37:22;;;;;;;4.45;1.95;;;;;;;;;;5027130;28;20468;-58
2022/09/30 00:39:48;;;;;;;6.95;2.13;;;;;;;;;;5030058;28;20037;-58
2022/09/30 00:42:14;;;;;;;3.45;1.50;;;;;;;;;;5029819;28;20040;-58
2022/09/30 00:44:44;;;;;;;2.30;1.45;;;;;;;;;;5024903;28;20120;-59
2022/09/30 00:47:17;;;;;;;5.45;1.58;;;;;;;;;;5030022;28;20068;-59
2022/09/30 00:49:43;;;;;;;6.07;1.70;;;;;;;;;;5027808;28;20463;-59
2022/09/30 00:52:09;;;;;;;4.22;2.05;;;;;;;;;;5028115;28;20478;-58
2022/09/30 00:54:35;;;;;;;4.43;1.90;;;;;;;;;;5010658;28;20046;-59
2022/09/30 00:57:02;;;;;;;4.05;2.28;;;;;;;;;;5027654;28;20037;-60
2022/09/30 00:59:32;;;;;;;3.22;2.05;;;;;;;;;;5031342;28;20132;-59
2022/09/30 01:01:58;;;;;;;4.50;2.03;;;;;;;;;;5029253;28;20049;-59
2022/09/30 01:04:26;;;;;;;5.95;1.60;;;;;;;;;;5028675;28;20522;-59
2022/09/30 01:06:52;;;;;;;8.45;2.20;;;;;;;;;;5026006;28;20041;-59
2022/09/30 01:09:19;;;;;;;2.58;2.00;;;;;;;;;;5027187;28;20076;-59
2022/09/30 01:11:46;;;;;;;3.20;2.10;;;;;;;;;;5011832;28;20850;-59
2022/09/30 01:14:12;;;;;;;3.63;1.88;;;;;;;;;;5026282;28;20124;-59
2022/09/30 01:16:38;;;;;;;5.40;2.25;;;;;;;;;;5024863;28;20038;-59
2022/09/30 01:19:15;;;;;;;4.82;2.13;;;;;;;;;;5026622;28;20646;-59
2022/09/30 01:21:44;;;;;;;6.72;2.03;;;;;;;;;;5008726;28;20057;-59
2022/09/30 01:24:18;;;;;;;3.00;2.03;;;;;;;;;;5026015;28;20063;-59
2022/09/30 01:27:04;;;;;;;3.55;2.22;;;;;;;;;;5024741;28;20033;-59
2022/09/30 01:29:43;;;;;;;3.20;1.92;;;;;;;;;;5026553;28;20051;-58
2022/09/30 01:32:23;;;;;;;3.03;1.88;;;;;;;;;;5025386;28;20037;-59
2022/09/30 01:35:06;;;;;;;3.00;1.73;;;;;;;;;;5025645;28;20095;-58
2022/09/30 01:37:39;;;;;;;3.72;2.42;;;;;;;;;;5025562;28;20050;-60
2022/09/30 01:40:08;;;;;;;2.22;1.60;;;;;;;;;;5025774;28;20049;-59
2022/09/30 01:42:34;;;;;;;;;;;;;;;;;;5022714;28;20055;-59
2022/09/30 01:45:06;;;;;;;2.80;1.63;;;;;;;;;;5030092;28;19916;-59
2022/09/30 01:47:44;;;;;;;4.97;2.80;;;;;;;;;;5026295;28;20076;-60
2022/09/30 01:50:17;;;;;;;13.50;2.80;;;;;;;;;;5026640;28;20048;-59
2022/09/30 01:52:48;;;;;;;2.30;1.70;;;;;;;;;;5025815;28;20439;-59
2022/09/30 01:55:21;;;;;;;5.30;1.67;;;;;;;;;;5025785;28;20056;-59
2022/09/30 01:57:52;;;;;;;1.17;0.90;;;;;;;;;;5023965;28;20049;-57
2022/09/30 02:00:18;;;;;;;2.90;1.92;;;;;;;;;;5025690;28;20045;-59
2022/09/30 02:02:48;;;;;;;5.80;1.60;;;;;;;;;;5025848;28;20037;-59
2022/09/30 02:05:17;;;;;;;5.25;2.63;;;;;;;;;;5025621;28;20114;-59
2022/09/30 02:07:47;;;;;;;4.78;2.47;;;;;;;;;;5025000;28;20041;-58
2022/09/30 02:10:16;;;;;;;3.63;2.47;;;;;;;;;;5025385;28;20061;-58
2022/09/30 02:12:48;;;;;;;5.03;2.50;;;;;;;;;;5024118;28;20041;-59
2022/09/30 02:15:16;;;;;;;6.53;2.90;;;;;;;;;;5092421;22;20058;-59
2022/09/30 02:17:52;;;;;;;4.82;1.70;;;;;;;;;;5021599;28;20537;-59
2022/09/30 02:20:23;;;;;;;5.57;1.95;;;;;;;;;;5023445;28;20125;-60
2022/09/30 02:22:51;;;;;;;4.22;2.55;;;;;;;;;;5008892;28;20084;-59
2022/09/30 02:25:26;;;;;;;3.45;1.70;;;;;;;;;;5000385;28;20046;-58
2022/09/30 02:27:55;;;;;;;7.20;2.15;;;;;;;;;;5014278;28;20577;-59
2022/09/30 02:30:21;;;;;;;3.80;2.00;;;;;;;;;;5024883;28;20037;-58
2022/09/30 02:32:51;;;;;;;6.38;2.55;;;;;;;;;;5017155;28;20056;-59
2022/09/30 02:35:24;;;;;;;2.70;2.20;;;;;;;;;;4993176;28;20054;-59
2022/09/30 02:37:52;;;;;;;5.82;2.95;;;;;;;;;;5017875;28;20038;-59
2022/09/30 02:40:18;;;;;;;;;;;;;;;;;;5015903;28;20091;-59
2022/09/30 02:42:45;;;;;;;3.17;2.03;;;;;;;;;;5023954;28;19920;-59
2022/09/30 02:45:15;;;;;;;3.20;1.88;;;;;;;;;;5012052;28;20049;-59
2022/09/30 02:47:42;;;;;;;7.13;1.50;;;;;;;;;;5016777;28;20104;-59
2022/09/30 02:50:13;;;;;;;3.08;1.90;;;;;;;;;;5020051;28;20037;-59
2022/09/30 02:52:44;;;;;;;17.30;2.50;;;;;;;;;;5015301;28;20042;-59
2022/09/30 02:55:17;;;;;;;28.15;2.80;;;;;;;;;;5019711;28;20124;-59
2022/09/30 02:57:46;;;;;;;5.35;1.70;;;;;;;;;;5023683;28;20049;-58
2022/09/30 03:00:13;;;;;;;4.15;2.22;;;;;;;;;;5024293;28;20069;-59
2022/09/30 03:02:39;;;;;;;5.93;2.20;;;;;;;;;;5016135;28;20048;-58
2022/09/30 03:05:06;;;;;;;6.10;1.95;;;;;;;;;;5024593;28;20034;-59
2022/09/30 03:07:33;;;;;;;2.15;1.55;;;;;;;;;;5015822;28;20053;-60
2022/09/30 03:09:59;;;;;;;2.58;1.80;;;;;;;;;;5029013;28;20041;-59
2022/09/30 03:12:38;;;;;;;4.15;1.92;;;;;;;;;;5009809;28;20069;-58
2022/09/30 03:15:22;;;;;;;3.15;1.88;;;;;;;;;;5019339;28;20106;-58
2022/09/30 03:17:54;;;;;;;3.25;2.10;;;;;;;;;;5011250;28;20092;-58
2022/09/30 03:20:24;;;;;;;4.78;1.98;;;;;;;;;;5012543;28;20042;-59
2022/09/30 03:23:12;;;;;;;2.08;1.35;;;;;;;;;;5026506;28;20513;-59
2022/09/30 03:25:58;;;;;;;3.75;1.38;;;;;;;;;;5025537;28;20046;-59
2022/09/30 03:28:30;;;;;;;2.78;1.80;;;;;;;;;;5025009;28;20041;-59
2022/09/30 03:30:57;;;;;;;3.03;1.95;;;;;;;;;;5016347;28;20103;-58
2022/09/30 03:33:27;;;;;;;3.50;1.65;;;;;;;;;;5027310;28;20061;-59
2022/09/30 03:35:53;;;;;;;2.45;1.95;;;;;;;;;;5020308;28;20049;-59
2022/09/30 03:38:30;;;;;;;8.00;2.45;;;;;;;;;;5003905;28;20049;-59
2022/09/30 03:41:00;;;;;;;2.22;1.55;;;;;;;;;;5012893;28;20129;-59
2022/09/30 03:43:34;;;;;;;6.63;1.88;;;;;;;;;;5027571;28;20564;-59
2022/09/30 03:46:00;;;;;;;1.63;0.90;;;;;;;;;;5025690;28;20045;-59
2022/09/30 03:48:27;;;;;;;13.82;1.95;;;;;;;;;;5027440;28;20041;-58
2022/09/30 03:50:54;;;;;;;3.85;1.73;;;;;;;;;;5026885;28;20045;-59
2022/09/30 03:53:20;;;;;;;16.38;2.20;;;;;;;;;;5022879;28;20050;-59
2022/09/30 03:55:48;;;;;;;3.05;2.00;;;;;;;;;;5026377;28;20041;-59
2022/09/30 03:58:15;;;;;;;5.22;2.47;;;;;;;;;;5009509;28;20096;-58
2022/09/30 04:00:45;;;;;;;6.43;2.25;;;;;;;;;;5026994;28;20056;-58
2022/09/30 04:03:11;;;;;;;3.03;2.25;;;;;;;;;;5027134;28;20041;-59
2022/09/30 04:05:37;;;;;;;2.50;1.67;;;;;;;;;;5019440;28;20400;-58
2022/09/30 04:08:04;;;;;;;2.80;1.70;;;;;;;;;;5019773;28;20042;-58
2022/09/30 04:10:30;;;;;;;2.88;1.92;;;;;;;;;;5026760;28;20048;-59
2022/09/30 04:12:57;;;;;;;3.58;2.13;;;;;;;;;;5026661;28;20095;-59
2022/09/30 04:15:23;;;;;;;3.15;2.13;;;;;;;;;;5026697;28;20064;-58
2022/09/30 04:17:49;;;;;;;2.35;1.70;;;;;;;;;;5018323;28;20068;-59
2022/09/30 04:20:15;;;;;;;5.40;2.08;;;;;;;;;;5018471;28;20491;-59
2022/09/30 04:22:42;;;;;;;8.52;2.75;;;;;;;;;;5024075;28;20430;-59
2022/09/30 04:25:08;;;;;;;4.57;1.95;;;;;;;;;;5026691;28;20038;-59
2022/09/30 04:27:34;;;;;;;5.85;2.75;;;;;;;;;;5026122;28;20034;-58
2022/09/30 04:30:00;;;;;;;6.20;3.03;;;;;;;;;;5026758;28;20033;-59
2022/09/30 04:32:27;;;;;;;4.35;2.60;;;;;;;;;;5017461;28;20117;-59
2022/09/30 04:34:53;;;;;;;6.75;3.13;;;;;;;;;;5018639;28;20052;-58
2022/09/30 04:37:20;;;;;;;5.32;3.00;;;;;;;;;;5026009;28;20153;-59
2022/09/30 04:39:46;;;;;;;4.70;3.00;;;;;;;;;;5025807;28;20099;-59
2022/09/30 04:42:12;;;;;;;7.38;2.88;;;;;;;;;;5025993;28;20113;-59
2022/09/30 04:44:39;;;;;;;6.32;3.92;;;;;;;;;;5023766;28;20535;-59
2022/09/30 04:47:05;;;;;;;9.52;3.13;;;;;;;;;;5026120;28;20124;-59
2022/09/30 04:49:32;;;;;;;23.45;4.80;;;;;;;;;;5026728;28;20092;-60
2022/09/30 04:51:58;;;;;;;21.38;4.45;;;;;;;;;;5026471;28;20045;-59
2022/09/30 04:54:24;;;;;;;21.02;4.70;;;;;;;;;;5026241;28;20048;-59
2022/09/30 04:56:50;;;;;;;23.45;3.45;;;;;;;;;;5012499;28;20042;-59
2022/09/30 04:59:16;;;;;;;5.82;2.58;;;;;;;;;;5024199;28;20041;-59
2022/09/30 05:01:43;;;;;;;15.55;3.47;;;;;;;;;;5021972;28;20096;-60
2022/09/30 05:04:11;;;;;;;12.70;4.25;;;;;;;;;;5017312;28;20048;-59
2022/09/30 05:06:39;;;;;;;9.77;2.27;;;;;;;;;;5025628;28;20103;-60
2022/09/30 05:09:06;;;;;;;11.50;2.05;;;;;;;;;;5025465;28;20042;-60
2022/09/30 05:11:32;;;;;;;4.50;1.98;;;;;;;;;;5024822;28;20119;-61
2022/09/30 05:13:58;;;;;;;5.38;2.50;;;;;;;;;;5007943;28;20064;-60
2022/09/30 05:16:26;;;;;;;5.13;2.20;;;;;;;;;;5007463;28;20132;-59
2022/09/30 05:18:53;;;;;;;2.63;2.10;;;;;;;;;;5023524;28;20053;-59
2022/09/30 05:21:19;;;;;;;3.60;2.40;;;;;;;;;;5025752;28;20033;-59
2022/09/30 05:23:46;;;;;;;2.90;2.08;;;;;;;;;;5020351;28;20092;-59
2022/09/30 05:26:12;;;;;;;5.80;2.60;;;;;;;;;;5024007;28;20490;-59
2022/09/30 05:28:38;;;;;;;4.38;2.63;;;;;;;;;;5005427;28;20054;-60
2022/09/30 05:31:05;;;;;;;3.33;2.55;;;;;;;;;;5025670;28;20043;-60
2022/09/30 05:33:32;;;;;;;3.78;2.50;;;;;;;;;;5025623;28;20049;-59
2022/09/30 05:35:59;;;;;;;3.67;2.70;;;;;;;;;;5024726;28;20865;-59
2022/09/30 05:38:25;;;;;;;3.17;2.60;;;;;;;;;;5013959;28;20038;-59
2022/09/30 05:40:53;;;;;;;5.05;2.28;;;;;;;;;;5024727;28;20064;-59
2022/09/30 05:43:19;;;;;;;2.78;2.15;;;;;;;;;;5021646;28;20560;-59
2022/09/30 05:45:53;;;;;;;3.50;2.35;;;;;;;;;;5024433;28;20087;-59
2022/09/30 05:48:19;;;;;;;3.55;2.50;;;;;;;;;;5012338;28;20049;-59
2022/09/30 05:50:49;;;;;;;4.30;3.25;;;;;;;;;;5022678;28;20033;-59
2022/09/30 05:53:17;;;;;;;5.25;3.10;;;;;;;;;;5025514;28;20045;-59
2022/09/30 05:55:46;;;;;;;3.58;2.35;;;;;;;;;;5016501;28;20057;-59
2022/09/30 05:58:14;;;;;;;6.20;2.75;;;;;;;;;;5015408;28;20037;-59
2022/09/30 06:00:41;;;;;;;4.10;2.80;;;;;;;;;;5020335;28;20060;-59
2022/09/30 06:03:07;;;;;;;5.35;2.92;;;;;;;;;;5010402;28;20087;-59
2022/09/30 06:05:34;;;;;;;3.40;2.70;;;;;;;;;;5022767;28;20098;-59
2022/09/30 06:08:00;;;;;;;4.05;2.67;;;;;;;;;;5021059;28;20123;-58
2022/09/30 06:10:27;;;;;;;4.95;2.60;;;;;;;;;;5013860;28;20034;-58
2022/09/30 06:12:53;;;;;;;3.40;2.83;;;;;;;;;;5006567;28;20175;-59
2022/09/30 06:15:19;;;;;;;3.85;3.00;;;;;;;;;;5014472;28;20177;-58
2022/09/30 06:17:45;;;;;;;7.68;3.13;;;;;;;;;;4991974;28;20050;-58
2022/09/30 06:20:12;;;;;;;3.50;2.88;;;;;;;;;;5013228;28;20034;-58
2022/09/30 06:22:38;;;;;;;3.90;3.03;;;;;;;;;;5010864;28;20049;-59
2022/09/30 06:25:05;;;;;;;8.13;3.10;;;;;;;;;;5006461;28;20046;-58
2022/09/30 06:27:33;;;;;;;4.68;3.03;;;;;;;;;;5017004;28;20037;-59
2022/09/30 06:29:59;;;;;;;3.65;2.97;;;;;;;;;;5007868;28;20057;-58
2022/09/30 06:32:25;;;;;;;5.07;3.20;;;;;;;;;;5012693;28;20048;-59
2022/09/30 06:34:54;;;;;;;3.70;3.30;;;;;;;;;;5024482;28;20053;-58
2022/09/30 06:37:21;;;;;;;7.05;3.63;;;;;;;;;;5025196;28;20042;-58
2022/09/30 06:39:47;;;;;;;6.22;4.13;;;;;;;;;;5025217;28;20125;-59
2022/09/30 06:42:14;;;;;;;7.45;4.80;;;;;;;;;;5025422;28;20753;-58
2022/09/30 06:44:40;;;;;;;6.95;4.85;;;;;;;;;;5010374;28;20042;-58
2022/09/30 06:47:07;;;;;;;5.72;4.40;;;;;;;;;;5028139;28;20050;-59
2022/09/30 06:49:34;;;;;;;6.28;5.20;;;;;;;;;;5016802;28;20088;-60
2022/09/30 06:52:00;;;;;;;7.07;4.95;;;;;;;;;;5028509;28;20041;-59
2022/09/30 06:54:27;;;;;;;8.10;5.47;;;;;;;;;;5017636;28;20051;-59
2022/09/30 06:56:56;;;;;;;9.82;5.80;;;;;;;;;;5027162;28;20099;-59
2022/09/30 06:59:24;;;;;;;10.65;6.95;;;;;;;;;;5010240;28;20164;-59
2022/09/30 07:01:50;;;;;;;11.50;6.75;;;;;;;;;;5028107;28;20091;-58
2022/09/30 07:04:16;;;;;;;16.20;7.03;;;;;;;;;;5010229;28;20386;-59
2022/09/30 07:06:43;;;;;;;12.40;7.38;;;;;;;;;;5024976;28;20099;-58
2022/09/30 07:09:10;;;;;;;13.48;8.25;;;;;;;;;;5026722;28;20050;-59
2022/09/30 07:11:36;;;;;;;14.68;8.18;;;;;;;;;;5009092;28;20099;-58
2022/09/30 07:14:03;;;;;;;12.48;8.60;;;;;;;;;;5019100;28;20042;-59
2022/09/30 07:16:33;;;;;;;41.60;9.82;;;;;;;;;;5027825;28;20129;-59
2022/09/30 07:19:00;;;;;;;33.92;10.15;;;;;;;;;;5022164;28;20046;-58
2022/09/30 07:21:29;;;;;;;70.43;10.70;;;;;;;;;;5026589;28;20107;-59
2022/09/30 07:23:55;;;;;;;27.23;11.70;;;;;;;;;;5027527;28;20045;-59
2022/09/30 07:26:22;;;;;;;78.93;11.40;;;;;;;;;;5026916;28;20049;-59
2022/09/30 07:28:49;;;;;;;30.30;10.13;;;;;;;;;;5020637;28;20045;-59
2022/09/30 07:31:17;;;;;;;40.45;11.18;;;;;;;;;;5026604;28;20045;-59
2022/09/30 07:33:43;;;;;;;50.63;10.33;;;;;;;;;;5027298;28;20033;-59
2022/09/30 07:36:10;;;;;;;55.45;11.02;;;;;;;;;;5027775;28;20607;-59
2022/09/30 07:38:37;;;;;;;41.20;10.80;;;;;;;;;;5026267;28;20125;-59
2022/09/30 07:41:06;;;;;;;37.70;10.73;;;;;;;;;;5008951;28;20099;-58
2022/09/30 07:43:36;;;;;;;24.33;10.63;;;;;;;;;;5027395;28;20108;-61
2022/09/30 07:46:04;;;;;;;33.58;12.52;;;;;;;;;;5016080;28;20082;-60
2022/09/30 07:48:41;;;;;;;40.33;10.63;;;;;;;;;;5026907;28;20083;-59
2022/09/30 07:51:08;;;;;;;30.48;10.07;;;;;;;;;;5027788;28;20044;-59
2022/09/30 07:53:34;;;;;;;21.77;9.80;;;;;;;;;;5027192;28;20045;-60
2022/09/30 07:56:03;;;;;;;23.10;11.27;;;;;;;;;;5026380;28;20050;-59
2022/09/30 07:58:29;;;;;;;26.55;11.10;;;;;;;;;;5025575;28;20132;-59
2022/09/30 08:00:55;;;;;;;21.88;10.07;;;;;;;;;;5026576;28;20056;-59
2022/09/30 08:03:21;;;;;;;31.83;11.25;;;;;;;;;;5027459;28;20050;-60
2022/09/30 08:05:48;;;;;;;23.75;10.55;;;;;;;;;;5026672;28;20041;-59
2022/09/30 08:08:15;;;;;;;35.03;12.05;;;;;;;;;;5018046;28;20041;-60
2022/09/30 08:10:41;;;;;;;29.33;10.50;;;;;;;;;;5001769;28;20046;-60
2022/09/30 08:13:08;;;;;;;31.65;12.48;;;;;;;;;;5026214;28;20042;-60
2022/09/30 08:15:34;;;;;;;43.65;12.80;;;;;;;;;;5026284;28;20065;-60
2022/09/30 08:18:00;;;;;;;28.58;11.63;;;;;;;;;;5027528;28;20483;-59
2022/09/30 08:20:26;;;;;;;41.00;12.80;;;;;;;;;;5023182;28;20049;-59
2022/09/30 08:22:53;;;;;;;36.00;12.23;;;;;;;;;;5025327;28;20045;-59
2022/09/30 08:25:19;;;;;;;32.17;13.52;;;;;;;;;;5026026;28;20046;-59
2022/09/30 08:27:45;;;;;;;27.23;12.25;;;;;;;;;;5021890;28;20475;-59
2022/09/30 08:30:12;;;;;;;30.42;13.02;;;;;;;;;;5026962;28;20033;-59
2022/09/30 08:32:38;;;;;;;27.48;12.93;;;;;;;;;;5026779;28;20175;-59
2022/09/30 08:35:05;;;;;;;28.35;13.25;;;;;;;;;;5021158;28;20124;-60
2022/09/30 08:37:32;;;;;;;23.97;12.77;;;;;;;;;;5026384;28;20052;-60
2022/09/30 08:39:58;;;;;;;29.70;13.77;;;;;;;;;;5025917;28;20486;-59
2022/09/30 08:42:25;;;;;;;27.02;13.70;;;;;;;;;;5026489;28;20038;-59
2022/09/30 08:44:51;;;;;;;28.30;12.20;;;;;;;;;;5017039;28;20046;-59
2022/09/30 08:47:28;;;;;;;24.42;12.95;;;;;;;;;;5023237;28;20048;-59
2022/09/30 08:50:08;;;;;;;22.33;11.73;;;;;;;;;;5017121;28;20132;-59
2022/09/30 08:52:38;;;;;;;24.88;13.32;;;;;;;;;;5025860;28;20042;-60
2022/09/30 08:55:06;;;;;;;25.90;12.45;;;;;;;;;;5025186;28;20051;-58
2022/09/30 08:57:42;;;;;;;28.35;12.80;;;;;;;;;;5025843;28;20045;-60
2022/09/30 09:00:12;;;;;;;26.58;11.82;;;;;;;;;;5023612;28;20085;-59
2022/09/30 09:02:48;;;;;;;21.15;11.75;;;;;;;;;;5022823;28;20041;-59
2022/09/30 09:05:18;;;;;;;20.35;10.82;;;;;;;;;;5026114;28;20431;-59
2022/09/30 09:07:49;;;;;;;19.88;9.90;;;;;;;;;;5025902;28;20044;-58
2022/09/30 09:10:16;;;;;;;15.05;9.07;;;;;;;;;;5025453;28;20076;-59
2022/09/30 09:12:52;;;;;;;12.98;8.10;;;;;;;;;;5025377;28;20499;-59
2022/09/30 09:15:23;;;;;;;11.02;6.00;;;;;;;;;;5017084;28;20404;-59
2022/09/30 09:17:49;;;;;;;14.98;7.82;;;;;;;;;;5025185;28;20505;-60
2022/09/30 09:20:17;;;;;;;9.85;6.25;;;;;;;;;;5025988;28;20391;-59
2022/09/30 09:22:45;;;;;;;10.23;6.32;;;;;;;;;;5025553;28;20052;-59
2022/09/30 09:25:14;;;;;;;10.45;6.35;;;;;;;;;;5025036;28;20048;-57
2022/09/30 09:27:40;;;;;;;;;;;;;;;;;;5024802;28;20045;-59
2022/09/30 09:30:07;;;;;;;10.05;6.15;;;;;;;;;;5025395;28;19944;-59
2022/09/30 09:32:35;;;;;;;6.82;4.90;;;;;;;;;;5021278;28;20037;-60
2022/09/30 09:35:06;;;;;;;9.75;5.32;;;;;;;;;;5025450;28;20426;-59
2022/09/30 09:40:42;;;;;;;17.75;6.30;;;;;;;;;;5014575;28;20056;-60
2022/09/30 09:43:18;;;;;;;9.70;4.40;;;;;;;;;;5025373;28;20041;-59
2022/09/30 09:45:55;;;;;;;7.32;4.45;;;;;;;;;;5005875;28;20069;-59
2022/09/30 09:48:21;;;;;;;8.43;3.72;;;;;;;;;;5024728;28;20084;-59
2022/09/30 09:50:58;;;;;;;6.32;3.65;;;;;;;;;;5025001;28;20060;-58
2022/09/30 09:53:38;;;;;;;9.18;3.90;;;;;;;;;;5023097;28;20128;-59
2022/09/30 09:56:17;;;;;;;12.85;4.40;;;;;;;;;;5024558;28;20049;-60
2022/09/30 09:59:03;;;;;;;6.15;3.03;;;;;;;;;;5024952;28;20087;-59
2022/09/30 10:01:31;;;;;;;7.20;3.00;;;;;;;;;;5018297;28;20107;-59
2022/09/30 10:04:09;;;;;;;6.13;3.30;;;;;;;;;;5025132;28;20046;-59
2022/09/30 10:06:43;;;;;;;6.93;3.27;;;;;;;;;;5018062;28;20116;-60
2022/09/30 10:09:21;;;;;;;5.22;2.92;;;;;;;;;;5025190;28;20414;-59
2022/09/30 10:11:47;;;;;;;5.05;3.72;;;;;;;;;;5025602;28;20045;-58
2022/09/30 10:14:21;;;;;;;7.00;3.65;;;;;;;;;;5015426;28;20046;-59
2022/09/30 10:16:47;;;;;;;7.63;3.92;;;;;;;;;;5029245;28;20404;-59
2022/09/30 10:19:24;;;;;;;6.85;3.30;;;;;;;;;;5016407;28;20488;-59
2022/09/30 10:21:51;;;;;;;9.02;4.38;;;;;;;;;;5021193;28;20479;-59
2022/09/30 10:24:19;;;;;;;6.70;4.32;;;;;;;;;;5029045;28;20049;-58
2022/09/30 10:26:46;;;;;;;8.90;4.43;;;;;;;;;;5024591;28;20049;-59
2022/09/30 10:29:25;;;;;;;10.02;4.78;;;;;;;;;;5028829;28;20041;-60
2022/09/30 10:31:52;;;;;;;6.97;4.45;;;;;;;;;;5024362;28;20450;-60
2022/09/30 10:34:24;;;;;;;8.43;4.60;;;;;;;;;;5023891;28;20052;-59
2022/09/30 10:36:50;;;;;;;7.72;4.72;;;;;;;;;;5027184;28;20415;-60
2022/09/30 10:39:27;;;;;;;8.35;4.85;;;;;;;;;;5016885;28;20042;-59
2022/09/30 10:42:07;;;;;;;8.82;5.35;;;;;;;;;;5028164;28;20397;-59
2022/09/30 10:44:37;;;;;;;9.32;5.90;;;;;;;;;;5019745;28;20154;-60
2022/09/30 10:47:04;;;;;;;8.70;4.90;;;;;;;;;;5028669;28;20578;-60
2022/09/30 10:49:34;;;;;;;9.27;4.57;;;;;;;;;;5029225;28;20308;-59
2022/09/30 10:52:01;;;;;;;8.02;4.65;;;;;;;;;;5025701;28;20169;-59
2022/09/30 10:54:48;;;;;;;6.32;3.38;;;;;;;;;;5024338;28;20049;-59
2022/09/30 10:57:18;;;;;;;6.03;3.83;;;;;;;;;;5023299;28;20048;-59
2022/09/30 10:59:45;;;;;;;5.22;3.78;;;;;;;;;;5025946;28;20041;-60
2022/09/30 11:02:18;;;;;;;7.68;2.95;;;;;;;;;;5014994;28;20045;-59
2022/09/30 11:04:47;;;;;;;3.75;2.70;;;;;;;;;;5024180;28;20499;-58
2022/09/30 11:07:27;;;;;;;3.95;2.53;;;;;;;;;;5017146;28;20124;-59
2022/09/30 11:09:59;;;;;;;5.32;2.40;;;;;;;;;;5019548;28;20046;-59
2022/09/30 11:12:30;;;;;;;4.35;2.42;;;;;;;;;;5013901;28;20041;-59
2022/09/30 11:15:04;;;;;;;5.38;2.75;;;;;;;;;;5020579;28;20144;-59
2022/09/30 11:17:36;;;;;;;4.45;3.08;;;;;;;;;;5019056;28;20104;-59
2022/09/30 11:20:15;;;;;;;5.07;2.72;;;;;;;;;;5014280;28;20042;-60
2022/09/30 11:22:46;;;;;;;7.18;3.22;;;;;;;;;;5014636;28;20133;-59
2022/09/30 11:25:20;;;;;;;9.63;3.80;;;;;;;;;;5005918;28;20050;-59
2022/09/30 11:28:02;;;;;;;12.43;3.80;;;;;;;;;;5016607;28;20045;-59
2022/09/30 11:30:35;;;;;;;7.40;3.20;;;;;;;;;;5018006;28;20123;-58
2022/09/30 11:33:22;;;;;;;10.02;4.15;;;;;;;;;;5024429;28;20046;-58
2022/09/30 11:35:54;;;;;;;8.07;3.60;;;;;;;;;;5020941;28;20034;-59
2022/09/30 11:38:27;;;;;;;8.27;3.92;;;;;;;;;;5021515;28;20041;-59
2022/09/30 11:40:54;;;;;;;5.05;3.72;;;;;;;;;;5024590;28;20120;-59
2022/09/30 11:43:32;;;;;;;9.68;4.30;;;;;;;;;;5027397;28;20635;-58
2022/09/30 11:46:09;;;;;;;5.45;3.30;;;;;;;;;;5019363;28;20041;-58
2022/09/30 11:48:45;;;;;;;8.10;3.92;;;;;;;;;;5023350;28;20145;-59
2022/09/30 11:51:11;;;;;;;8.52;3.10;;;;;;;;;;5024872;28;20056;-58
2022/09/30 11:53:38;;;;;;;8.52;3.20;;;;;;;;;;5027369;28;20044;-59
2022/09/30 11:56:10;;;;;;;6.65;3.53;;;;;;;;;;5023621;28;20042;-58
2022/09/30 11:58:38;;;;;;;9.57;3.38;;;;;;;;;;5019737;28;20041;-59
2022/09/30 12:01:04;;;;;;;;;;;;;;;;;;5027672;28;20447;-58
2022/09/30 12:03:34;;;;;;;8.77;4.03;;;;;;;;;;5023852;28;19921;-58
2022/09/30 12:06:03;;;;;;;12.88;4.05;;;;;;;;;;5027805;28;20065;-58
2022/09/30 12:08:32;;;;;;;9.25;4.40;;;;;;;;;;5027404;28;20037;-59
2022/09/30 12:11:02;;;;;;;9.45;5.22;;;;;;;;;;5025774;28;20503;-59
2022/09/30 12:13:31;;;;;;;8.07;5.10;;;;;;;;;;5024649;28;20808;-59
2022/09/30 12:15:58;;;;;;;11.52;5.30;;;;;;;;;;5025650;28;20049;-58
2022/09/30 12:18:32;;;;;;;10.30;5.50;;;;;;;;;;5012184;28;20488;-59
2022/09/30 12:21:00;;;;;;;13.50;6.25;;;;;;;;;;5015942;28;20096;-58
2022/09/30 12:23:30;;;;;;;8.27;6.15;;;;;;;;;;5026514;28;20124;-58
2022/09/30 12:25:56;;;;;;;9.95;6.22;;;;;;;;;;5019393;28;20056;-59
2022/09/30 12:31:55;;;;;;;11.95;8.02;;;;;;;;;;5019215;28;20045;-59
2022/09/30 12:34:30;;;;;;;13.77;7.20;;;;;;;;;;5020375;28;20049;-59
2022/09/30 12:37:02;;;;;;;15.75;7.45;;;;;;;;;;5020210;28;20405;-59
2022/09/30 12:39:42;;;;;;;13.65;7.45;;;;;;;;;;5020454;28;20045;-59
2022/09/30 12:42:27;;;;;;;11.38;7.65;;;;;;;;;;5020169;28;20045;-58
2022/09/30 12:45:20;;;;;;;8.88;6.50;;;;;;;;;;5024042;28;20079;-59
2022/09/30 12:47:46;;;;;;;10.60;8.02;;;;;;;;;;5019906;28;20052;-58
2022/09/30 12:50:15;;;;;;;25.35;9.27;;;;;;;;;;5022864;28;20507;-59
2022/09/30 12:52:41;;;;;;;15.32;9.43;;;;;;;;;;5018067;28;20046;-58
2022/09/30 12:55:18;;;;;;;13.63;8.27;;;;;;;;;;5021415;28;20504;-59
2022/09/30 12:57:44;;;;;;;15.05;8.35;;;;;;;;;;5021131;28;20522;-60
2022/09/30 13:00:15;;;;;;;12.65;7.88;;;;;;;;;;5022188;28;20099;-60
2022/09/30 13:02:43;;;;;;;14.90;8.15;;;;;;;;;;5002616;28;20563;-60
2022/09/30 13:05:26;;;;;;;12.75;9.07;;;;;;;;;;5021481;28;20072;-60
2022/09/30 13:08:16;;;;;;;13.02;8.45;;;;;;;;;;5020737;28;20046;-60
2022/09/30 13:10:44;;;;;;;14.07;9.10;;;;;;;;;;5015549;28;20089;-59
2022/09/30 13:13:10;;;;;;;12.25;8.13;;;;;;;;;;5021846;28;20073;-59
2022/09/30 13:15:39;;;;;;;10.75;8.30;;;;;;;;;;5019864;28;20091;-58
2022/09/30 13:18:32;;;;;;;13.80;9.10;;;;;;;;;;5020023;28;20438;-60
2022/09/30 13:21:05;;;;;;;18.08;9.93;;;;;;;;;;5020892;28;20052;-59
2022/09/30 13:23:34;;;;;;;12.55;8.93;;;;;;;;;;5021287;28;20053;-59
2022/09/30 13:26:01;;;;;;;11.40;8.70;;;;;;;;;;5021996;28;20055;-60
2022/09/30 13:28:30;;;;;;;14.27;10.07;;;;;;;;;;5020398;28;20124;-59
2022/09/30 13:31:13;;;;;;;11.52;8.77;;;;;;;;;;5004390;28;20045;-59
2022/09/30 13:33:42;;;;;;;15.27;8.98;;;;;;;;;;5018406;28;20098;-60
2022/09/30 13:36:09;;;;;;;;;;;;;;;;;;5021620;28;20064;-60
2022/09/30 13:38:36;;;;;;;18.77;11.10;;;;;;;;;;5020966;28;19921;-59
2022/09/30 13:41:07;;;;;;;15.90;10.50;;;;;;;;;;5021251;28;20041;-60
2022/09/30 13:43:37;;;;;;;15.35;10.20;;;;;;;;;;5020752;28;20283;-60
2022/09/30 13:46:06;;;;;;;14.35;10.63;;;;;;;;;;5019461;28;20179;-60
2022/09/30 13:48:35;;;;;;;16.50;10.65;;;;;;;;;;5017790;28;20056;-61
2022/09/30 13:51:03;;;;;;;18.48;10.60;;;;;;;;;;5002058;28;20518;-60
2022/09/30 13:53:39;;;;;;;14.30;10.10;;;;;;;;;;5021541;28;20499;-58
2022/09/30 13:56:07;;;;;;;14.38;8.75;;;;;;;;;;5018981;28;20053;-59
2022/09/30 13:58:33;;;;;;;13.15;9.30;;;;;;;;;;5011921;28;20072;-60
2022/09/30 14:01:07;;;;;;;15.90;9.77;;;;;;;;;;5006521;28;20053;-59
2022/09/30 14:03:35;;;;;;;13.15;9.32;;;;;;;;;;5019611;28;20140;-60
2022/09/30 14:06:09;;;;;;;11.27;8.10;;;;;;;;;;5011140;28;20056;-59
2022/09/30 14:08:50;;;;;;;11.43;8.10;;;;;;;;;;5009787;28;20037;-59
2022/09/30 14:11:25;;;;;;;13.05;7.88;;;;;;;;;;5016013;28;20500;-59
2022/09/30 14:14:06;;;;;;;15.68;8.02;;;;;;;;;;5000267;28;20072;-59
2022/09/30 14:16:40;;;;;;;15.02;7.88;;;;;;;;;;5016570;28;20053;-58
2022/09/30 14:19:21;;;;;;;17.60;8.20;;;;;;;;;;5025318;28;20080;-57
2022/09/30 14:21:50;;;;;;;13.13;8.10;;;;;;;;;;5021570;28;20046;-57
2022/09/30 14:24:22;;;;;;;18.20;7.40;;;;;;;;;;5024119;28;20506;-56
2022/09/30 14:26:59;;;;;;;11.57;7.93;;;;;;;;;;5023787;28;20042;-56
2022/09/30 14:29:30;;;;;;;9.30;7.25;;;;;;;;;;5024736;28;20116;-56
2022/09/30 14:31:58;;;;;;;12.77;8.07;;;;;;;;;;5011670;28;20065;-55
2022/09/30 14:34:26;;;;;;;8.93;7.07;;;;;;;;;;5015195;28;20120;-55
2022/09/30 14:36:53;;;;;;;11.02;6.75;;;;;;;;;;5024662;28;20046;-59
2022/09/30 14:39:22;;;;;;;13.07;7.43;;;;;;;;;;5024110;28;20108;-56
2022/09/30 14:41:56;;;;;;;11.55;6.85;;;;;;;;;;5023093;28;20049;-55
2022/09/30 14:44:23;;;;;;;13.15;7.57;;;;;;;;;;5018551;28;20057;-57
2022/09/30 14:46:50;;;;;;;10.05;7.10;;;;;;;;;;5019792;28;20033;-56
2022/09/30 14:49:19;;;;;;;12.68;7.75;;;;;;;;;;5015778;28;20049;-57
2022/09/30 14:51:47;;;;;;;15.52;8.82;;;;;;;;;;5022974;28;20041;-56
2022/09/30 14:54:25;;;;;;;9.63;7.70;;;;;;;;;;5024043;28;20049;-56
2022/09/30 14:56:53;;;;;;;21.48;8.65;;;;;;;;;;5020844;28;20041;-57
2022/09/30 14:59:19;;;;;;;13.50;7.90;;;;;;;;;;5019586;28;20045;-56